sensor_id;sensor_type;location;lat;lon;timestamp;P1;durP1;ratioP1;P2;durP2;ratioP2
47589;SDS011;33316;52.298;9.056;2022-11-14T00:00:50;23.85;;;13.27;;
47589;SDS011;33316;52.298;9.056;2022-11-14T00:03:17;21.85;;;12.77;;
47589;SDS011;33316;52.298;9.056;2022-11-14T00:05:44;22.92;;;13.38;;
47589;SDS011;33316;52.298;9.056;2022-11-14T00:08:17;29.40;;;15.07;;
47589;SDS011;33316;52.298;9.056;2022-11-14T00:10:45;23.98;;;14.57;;
47589;SDS011;33316;52.298;9.056;2022-11-14T00:13:12;27.27;;;15.25;;
47589;SDS011;33316;52.298;9.056;2022-11-14T00:15:40;27.90;;;15.20;;
47589;SDS011;33316;52.298;9.056;2022-11-14T00:18:06;22.10;;;13.18;;
47589;SDS011;33316;52.298;9.056;2022-11-14T00:20:33;24.17;;;14.02;;
47589;SDS011;33316;52.298;9.056;2022-11-14T00:23:00;27.40;;;14.60;;
47589;SDS011;33316;52.298;9.056;2022-11-14T00:25:28;24.05;;;13.73;;
47589;SDS011;33316;52.298;9.056;2022-11-14T00:27:55;28.15;;;14.30;;
47589;SDS011;33316;52.298;9.056;2022-11-14T00:30:22;25.90;;;13.30;;
47589;SDS011;33316;52.298;9.056;2022-11-14T00:32:49;21.50;;;12.38;;
47589;SDS011;33316;52.298;9.056;2022-11-14T00:35:16;22.15;;;12.23;;
47589;SDS011;33316;52.298;9.056;2022-11-14T00:37:42;22.63;;;12.43;;
47589;SDS011;33316;52.298;9.056;2022-11-14T00:40:09;22.27;;;12.25;;
47589;SDS011;33316;52.298;9.056;2022-11-14T00:42:39;21.88;;;11.82;;
47589;SDS011;33316;52.298;9.056;2022-11-14T00:45:07;22.40;;;13.02;;
47589;SDS011;33316;52.298;9.056;2022-11-14T00:47:34;22.52;;;12.60;;
47589;SDS011;33316;52.298;9.056;2022-11-14T00:50:01;21.77;;;12.30;;
47589;SDS011;33316;52.298;9.056;2022-11-14T00:52:28;22.33;;;12.82;;
47589;SDS011;33316;52.298;9.056;2022-11-14T00:54:55;24.30;;;12.88;;
47589;SDS011;33316;52.298;9.056;2022-11-14T00:57:21;24.85;;;13.30;;
47589;SDS011;33316;52.298;9.056;2022-11-14T00:59:49;21.70;;;11.73;;
47589;SDS011;33316;52.298;9.056;2022-11-14T01:04:46;18.23;;;10.23;;
47589;SDS011;33316;52.298;9.056;2022-11-14T01:07:13;21.27;;;12.02;;
47589;SDS011;33316;52.298;9.056;2022-11-14T01:09:39;22.88;;;13.48;;
47589;SDS011;33316;52.298;9.056;2022-11-14T01:12:06;25.35;;;14.13;;
47589;SDS011;33316;52.298;9.056;2022-11-14T01:14:33;26.95;;;14.45;;
47589;SDS011;33316;52.298;9.056;2022-11-14T01:17:02;24.80;;;13.52;;
47589;SDS011;33316;52.298;9.056;2022-11-14T01:19:28;24.50;;;12.68;;
47589;SDS011;33316;52.298;9.056;2022-11-14T01:21:55;22.08;;;12.35;;
47589;SDS011;33316;52.298;9.056;2022-11-14T01:24:22;22.35;;;12.93;;
47589;SDS011;33316;52.298;9.056;2022-11-14T01:26:49;20.30;;;11.20;;
47589;SDS011;33316;52.298;9.056;2022-11-14T01:29:15;19.92;;;10.23;;
47589;SDS011;33316;52.298;9.056;2022-11-14T01:31:42;23.90;;;12.85;;
47589;SDS011;33316;52.298;9.056;2022-11-14T01:34:10;23.67;;;12.73;;
47589;SDS011;33316;52.298;9.056;2022-11-14T01:36:37;27.98;;;14.95;;
47589;SDS011;33316;52.298;9.056;2022-11-14T01:39:03;28.45;;;14.40;;
47589;SDS011;33316;52.298;9.056;2022-11-14T01:41:30;24.20;;;12.88;;
47589;SDS011;33316;52.298;9.056;2022-11-14T01:43:57;26.35;;;14.35;;
47589;SDS011;33316;52.298;9.056;2022-11-14T01:46:24;22.83;;;13.07;;
47589;SDS011;33316;52.298;9.056;2022-11-14T01:48:54;20.58;;;11.35;;
47589;SDS011;33316;52.298;9.056;2022-11-14T01:51:26;22.15;;;12.98;;
47589;SDS011;33316;52.298;9.056;2022-11-14T01:53:57;25.60;;;13.27;;
47589;SDS011;33316;52.298;9.056;2022-11-14T01:56:28;25.55;;;12.52;;
47589;SDS011;33316;52.298;9.056;2022-11-14T01:58:59;23.90;;;13.18;;
47589;SDS011;33316;52.298;9.056;2022-11-14T02:01:30;24.88;;;13.70;;
47589;SDS011;33316;52.298;9.056;2022-11-14T02:03:59;25.50;;;13.43;;
47589;SDS011;33316;52.298;9.056;2022-11-14T02:06:29;23.77;;;13.02;;
47589;SDS011;33316;52.298;9.056;2022-11-14T02:08:57;22.50;;;12.20;;
47589;SDS011;33316;52.298;9.056;2022-11-14T02:11:27;19.03;;;10.70;;
47589;SDS011;33316;52.298;9.056;2022-11-14T02:13:57;22.70;;;12.68;;
47589;SDS011;33316;52.298;9.056;2022-11-14T02:16:24;23.95;;;13.63;;
47589;SDS011;33316;52.298;9.056;2022-11-14T02:18:51;24.88;;;13.32;;
47589;SDS011;33316;52.298;9.056;2022-11-14T02:21:19;21.17;;;12.43;;
47589;SDS011;33316;52.298;9.056;2022-11-14T02:23:46;26.13;;;13.68;;
47589;SDS011;33316;52.298;9.056;2022-11-14T02:26:15;24.95;;;12.75;;
47589;SDS011;33316;52.298;9.056;2022-11-14T02:28:43;23.75;;;12.55;;
47589;SDS011;33316;52.298;9.056;2022-11-14T02:31:10;23.02;;;12.52;;
47589;SDS011;33316;52.298;9.056;2022-11-14T02:33:38;22.05;;;12.15;;
47589;SDS011;33316;52.298;9.056;2022-11-14T02:36:05;22.23;;;11.68;;
47589;SDS011;33316;52.298;9.056;2022-11-14T02:38:33;23.67;;;12.45;;
47589;SDS011;33316;52.298;9.056;2022-11-14T02:41:00;21.67;;;11.63;;
47589;SDS011;33316;52.298;9.056;2022-11-14T02:43:27;23.40;;;12.35;;
47589;SDS011;33316;52.298;9.056;2022-11-14T02:45:54;24.88;;;13.13;;
47589;SDS011;33316;52.298;9.056;2022-11-14T02:48:21;25.70;;;12.73;;
47589;SDS011;33316;52.298;9.056;2022-11-14T02:50:48;25.48;;;13.15;;
47589;SDS011;33316;52.298;9.056;2022-11-14T02:53:15;23.60;;;12.00;;
47589;SDS011;33316;52.298;9.056;2022-11-14T02:55:43;23.65;;;12.98;;
47589;SDS011;33316;52.298;9.056;2022-11-14T02:58:10;20.23;;;10.65;;
47589;SDS011;33316;52.298;9.056;2022-11-14T03:00:37;24.27;;;12.32;;
47589;SDS011;33316;52.298;9.056;2022-11-14T03:03:03;24.60;;;12.40;;
47589;SDS011;33316;52.298;9.056;2022-11-14T03:05:30;24.02;;;12.35;;
47589;SDS011;33316;52.298;9.056;2022-11-14T03:07:57;25.70;;;13.50;;
47589;SDS011;33316;52.298;9.056;2022-11-14T03:10:24;24.85;;;12.68;;
47589;SDS011;33316;52.298;9.056;2022-11-14T03:12:53;27.27;;;13.65;;
47589;SDS011;33316;52.298;9.056;2022-11-14T03:15:20;24.15;;;12.55;;
47589;SDS011;33316;52.298;9.056;2022-11-14T03:17:47;25.50;;;13.43;;
47589;SDS011;33316;52.298;9.056;2022-11-14T03:20:15;23.48;;;12.80;;
47589;SDS011;33316;52.298;9.056;2022-11-14T03:22:42;25.70;;;13.50;;
47589;SDS011;33316;52.298;9.056;2022-11-14T03:25:09;25.63;;;12.27;;
47589;SDS011;33316;52.298;9.056;2022-11-14T03:27:35;20.05;;;11.15;;
47589;SDS011;33316;52.298;9.056;2022-11-14T03:30:04;27.08;;;13.90;;
47589;SDS011;33316;52.298;9.056;2022-11-14T03:32:31;25.42;;;12.40;;
47589;SDS011;33316;52.298;9.056;2022-11-14T03:34:58;20.48;;;11.10;;
47589;SDS011;33316;52.298;9.056;2022-11-14T03:37:25;26.33;;;12.40;;
47589;SDS011;33316;52.298;9.056;2022-11-14T03:39:52;25.67;;;13.60;;
47589;SDS011;33316;52.298;9.056;2022-11-14T03:42:19;23.85;;;13.57;;
47589;SDS011;33316;52.298;9.056;2022-11-14T03:44:45;25.83;;;13.05;;
47589;SDS011;33316;52.298;9.056;2022-11-14T03:47:13;27.75;;;14.32;;
47589;SDS011;33316;52.298;9.056;2022-11-14T03:49:40;30.08;;;15.15;;
47589;SDS011;33316;52.298;9.056;2022-11-14T03:52:09;34.45;;;16.73;;
47589;SDS011;33316;52.298;9.056;2022-11-14T03:54:35;31.50;;;13.88;;
47589;SDS011;33316;52.298;9.056;2022-11-14T03:57:03;30.05;;;15.10;;
47589;SDS011;33316;52.298;9.056;2022-11-14T03:59:29;29.42;;;14.88;;
47589;SDS011;33316;52.298;9.056;2022-11-14T04:01:56;26.70;;;13.57;;
47589;SDS011;33316;52.298;9.056;2022-11-14T04:04:24;26.52;;;13.75;;
47589;SDS011;33316;52.298;9.056;2022-11-14T04:06:51;28.20;;;14.23;;
47589;SDS011;33316;52.298;9.056;2022-11-14T04:09:18;28.02;;;14.52;;
47589;SDS011;33316;52.298;9.056;2022-11-14T04:11:44;26.77;;;14.02;;
47589;SDS011;33316;52.298;9.056;2022-11-14T04:14:11;26.30;;;13.95;;
47589;SDS011;33316;52.298;9.056;2022-11-14T04:16:38;28.42;;;14.38;;
47589;SDS011;33316;52.298;9.056;2022-11-14T04:19:05;25.50;;;14.05;;
47589;SDS011;33316;52.298;9.056;2022-11-14T04:21:33;31.27;;;15.80;;
47589;SDS011;33316;52.298;9.056;2022-11-14T04:24:00;32.45;;;15.35;;
47589;SDS011;33316;52.298;9.056;2022-11-14T04:26:27;25.00;;;14.10;;
47589;SDS011;33316;52.298;9.056;2022-11-14T04:28:53;27.30;;;14.35;;
47589;SDS011;33316;52.298;9.056;2022-11-14T04:31:20;27.27;;;14.77;;
47589;SDS011;33316;52.298;9.056;2022-11-14T04:33:47;27.08;;;13.27;;
47589;SDS011;33316;52.298;9.056;2022-11-14T04:36:14;29.75;;;15.10;;
47589;SDS011;33316;52.298;9.056;2022-11-14T04:38:42;32.00;;;16.20;;
47589;SDS011;33316;52.298;9.056;2022-11-14T04:41:08;25.88;;;13.73;;
47589;SDS011;33316;52.298;9.056;2022-11-14T04:43:35;30.63;;;15.30;;
47589;SDS011;33316;52.298;9.056;2022-11-14T04:46:02;27.55;;;14.48;;
47589;SDS011;33316;52.298;9.056;2022-11-14T04:48:29;28.10;;;14.25;;
47589;SDS011;33316;52.298;9.056;2022-11-14T04:50:55;26.38;;;15.10;;
47589;SDS011;33316;52.298;9.056;2022-11-14T04:53:22;30.58;;;13.23;;
47589;SDS011;33316;52.298;9.056;2022-11-14T04:55:50;21.80;;;12.68;;
47589;SDS011;33316;52.298;9.056;2022-11-14T04:58:17;26.83;;;14.23;;
47589;SDS011;33316;52.298;9.056;2022-11-14T05:00:44;28.35;;;14.77;;
47589;SDS011;33316;52.298;9.056;2022-11-14T05:03:11;26.05;;;14.02;;
47589;SDS011;33316;52.298;9.056;2022-11-14T05:05:37;25.70;;;13.57;;
47589;SDS011;33316;52.298;9.056;2022-11-14T05:08:04;25.70;;;13.10;;
47589;SDS011;33316;52.298;9.056;2022-11-14T05:10:31;24.90;;;13.80;;
47589;SDS011;33316;52.298;9.056;2022-11-14T05:12:59;27.88;;;15.05;;
47589;SDS011;33316;52.298;9.056;2022-11-14T05:15:26;26.65;;;13.65;;
47589;SDS011;33316;52.298;9.056;2022-11-14T05:17:55;27.35;;;14.95;;
47589;SDS011;33316;52.298;9.056;2022-11-14T05:20:22;27.17;;;13.93;;
47589;SDS011;33316;52.298;9.056;2022-11-14T05:22:51;27.23;;;14.75;;
47589;SDS011;33316;52.298;9.056;2022-11-14T05:25:18;24.83;;;12.48;;
47589;SDS011;33316;52.298;9.056;2022-11-14T05:27:45;26.05;;;12.45;;
47589;SDS011;33316;52.298;9.056;2022-11-14T05:30:14;21.70;;;12.35;;
47589;SDS011;33316;52.298;9.056;2022-11-14T05:32:41;23.83;;;11.68;;
47589;SDS011;33316;52.298;9.056;2022-11-14T05:35:08;25.33;;;13.77;;
47589;SDS011;33316;52.298;9.056;2022-11-14T05:37:35;25.60;;;13.45;;
47589;SDS011;33316;52.298;9.056;2022-11-14T05:40:03;26.10;;;12.45;;
47589;SDS011;33316;52.298;9.056;2022-11-14T05:42:31;24.75;;;12.75;;
47589;SDS011;33316;52.298;9.056;2022-11-14T05:44:58;23.75;;;12.48;;
47589;SDS011;33316;52.298;9.056;2022-11-14T05:47:26;26.90;;;13.98;;
47589;SDS011;33316;52.298;9.056;2022-11-14T05:49:53;25.58;;;12.93;;
47589;SDS011;33316;52.298;9.056;2022-11-14T05:52:19;23.90;;;12.73;;
47589;SDS011;33316;52.298;9.056;2022-11-14T05:54:55;23.83;;;12.70;;
47589;SDS011;33316;52.298;9.056;2022-11-14T05:57:22;24.25;;;12.77;;
47589;SDS011;33316;52.298;9.056;2022-11-14T05:59:49;22.15;;;12.38;;
47589;SDS011;33316;52.298;9.056;2022-11-14T06:02:16;23.55;;;12.35;;
47589;SDS011;33316;52.298;9.056;2022-11-14T06:04:44;21.40;;;11.38;;
47589;SDS011;33316;52.298;9.056;2022-11-14T06:07:11;22.75;;;12.38;;
47589;SDS011;33316;52.298;9.056;2022-11-14T06:09:37;25.88;;;12.80;;
47589;SDS011;33316;52.298;9.056;2022-11-14T06:12:04;22.60;;;12.40;;
47589;SDS011;33316;52.298;9.056;2022-11-14T06:14:32;23.30;;;12.15;;
47589;SDS011;33316;52.298;9.056;2022-11-14T06:16:58;22.25;;;11.85;;
47589;SDS011;33316;52.298;9.056;2022-11-14T06:19:31;24.85;;;13.27;;
47589;SDS011;33316;52.298;9.056;2022-11-14T06:22:00;22.08;;;11.95;;
47589;SDS011;33316;52.298;9.056;2022-11-14T06:24:26;23.35;;;12.18;;
47589;SDS011;33316;52.298;9.056;2022-11-14T06:26:53;25.15;;;13.07;;
47589;SDS011;33316;52.298;9.056;2022-11-14T06:29:20;19.95;;;11.18;;
47589;SDS011;33316;52.298;9.056;2022-11-14T06:31:46;19.70;;;10.75;;
47589;SDS011;33316;52.298;9.056;2022-11-14T06:34:13;25.20;;;13.73;;
47589;SDS011;33316;52.298;9.056;2022-11-14T06:36:40;21.02;;;12.20;;
47589;SDS011;33316;52.298;9.056;2022-11-14T06:39:08;25.73;;;13.32;;
47589;SDS011;33316;52.298;9.056;2022-11-14T06:41:35;23.98;;;13.02;;
47589;SDS011;33316;52.298;9.056;2022-11-14T06:44:02;22.50;;;12.38;;
47589;SDS011;33316;52.298;9.056;2022-11-14T06:46:28;23.13;;;11.75;;
47589;SDS011;33316;52.298;9.056;2022-11-14T06:48:55;24.67;;;13.18;;
47589;SDS011;33316;52.298;9.056;2022-11-14T06:51:22;26.45;;;13.05;;
47589;SDS011;33316;52.298;9.056;2022-11-14T06:53:49;25.48;;;13.57;;
47589;SDS011;33316;52.298;9.056;2022-11-14T06:56:17;22.52;;;12.52;;
47589;SDS011;33316;52.298;9.056;2022-11-14T06:58:45;25.70;;;13.27;;
47589;SDS011;33316;52.298;9.056;2022-11-14T07:01:14;27.48;;;13.98;;
47589;SDS011;33316;52.298;9.056;2022-11-14T07:03:42;26.17;;;14.95;;
47589;SDS011;33316;52.298;9.056;2022-11-14T07:06:10;26.33;;;14.32;;
47589;SDS011;33316;52.298;9.056;2022-11-14T07:08:38;27.75;;;14.82;;
47589;SDS011;33316;52.298;9.056;2022-11-14T07:11:06;27.92;;;14.27;;
47589;SDS011;33316;52.298;9.056;2022-11-14T07:13:36;28.23;;;15.38;;
47589;SDS011;33316;52.298;9.056;2022-11-14T07:16:03;28.40;;;15.43;;
47589;SDS011;33316;52.298;9.056;2022-11-14T07:18:31;26.25;;;13.98;;
47589;SDS011;33316;52.298;9.056;2022-11-14T07:20:59;24.13;;;13.40;;
47589;SDS011;33316;52.298;9.056;2022-11-14T07:23:27;23.90;;;13.10;;
47589;SDS011;33316;52.298;9.056;2022-11-14T07:25:58;23.15;;;11.95;;
47589;SDS011;33316;52.298;9.056;2022-11-14T07:28:26;22.45;;;13.70;;
47589;SDS011;33316;52.298;9.056;2022-11-14T07:30:54;26.30;;;13.93;;
47589;SDS011;33316;52.298;9.056;2022-11-14T07:33:21;25.85;;;12.77;;
47589;SDS011;33316;52.298;9.056;2022-11-14T07:35:48;26.45;;;13.77;;
47589;SDS011;33316;52.298;9.056;2022-11-14T07:38:15;29.98;;;15.80;;
47589;SDS011;33316;52.298;9.056;2022-11-14T07:40:42;27.10;;;15.85;;
47589;SDS011;33316;52.298;9.056;2022-11-14T07:43:17;31.33;;;16.30;;
47589;SDS011;33316;52.298;9.056;2022-11-14T07:45:44;33.60;;;17.58;;
47589;SDS011;33316;52.298;9.056;2022-11-14T07:48:12;33.13;;;18.02;;
47589;SDS011;33316;52.298;9.056;2022-11-14T07:50:38;29.27;;;16.08;;
47589;SDS011;33316;52.298;9.056;2022-11-14T07:53:05;28.52;;;15.30;;
47589;SDS011;33316;52.298;9.056;2022-11-14T07:55:33;29.05;;;15.57;;
47589;SDS011;33316;52.298;9.056;2022-11-14T07:58:00;29.25;;;16.30;;
47589;SDS011;33316;52.298;9.056;2022-11-14T08:00:28;27.38;;;15.35;;
47589;SDS011;33316;52.298;9.056;2022-11-14T08:02:54;29.85;;;15.40;;
47589;SDS011;33316;52.298;9.056;2022-11-14T08:05:23;30.92;;;16.33;;
47589;SDS011;33316;52.298;9.056;2022-11-14T08:07:50;27.55;;;15.32;;
47589;SDS011;33316;52.298;9.056;2022-11-14T08:10:17;31.80;;;17.42;;
47589;SDS011;33316;52.298;9.056;2022-11-14T08:12:44;28.42;;;16.30;;
47589;SDS011;33316;52.298;9.056;2022-11-14T08:15:12;28.15;;;15.45;;
47589;SDS011;33316;52.298;9.056;2022-11-14T08:17:39;32.10;;;16.13;;
47589;SDS011;33316;52.298;9.056;2022-11-14T08:20:07;31.00;;;15.88;;
47589;SDS011;33316;52.298;9.056;2022-11-14T08:22:36;28.00;;;15.70;;
47589;SDS011;33316;52.298;9.056;2022-11-14T08:25:03;28.05;;;15.23;;
47589;SDS011;33316;52.298;9.056;2022-11-14T08:27:30;30.15;;;16.40;;
47589;SDS011;33316;52.298;9.056;2022-11-14T08:29:57;29.13;;;15.70;;
47589;SDS011;33316;52.298;9.056;2022-11-14T08:32:23;27.33;;;14.45;;
47589;SDS011;33316;52.298;9.056;2022-11-14T08:34:50;25.63;;;13.30;;
47589;SDS011;33316;52.298;9.056;2022-11-14T08:37:17;25.90;;;14.18;;
47589;SDS011;33316;52.298;9.056;2022-11-14T08:39:45;27.75;;;14.77;;
47589;SDS011;33316;52.298;9.056;2022-11-14T08:42:12;24.52;;;13.27;;
47589;SDS011;33316;52.298;9.056;2022-11-14T08:44:38;26.77;;;15.60;;
47589;SDS011;33316;52.298;9.056;2022-11-14T08:47:05;26.30;;;15.20;;
47589;SDS011;33316;52.298;9.056;2022-11-14T08:49:32;29.40;;;16.05;;
47589;SDS011;33316;52.298;9.056;2022-11-14T08:51:59;27.30;;;14.55;;
47589;SDS011;33316;52.298;9.056;2022-11-14T08:54:25;21.70;;;12.65;;
47589;SDS011;33316;52.298;9.056;2022-11-14T08:56:54;24.25;;;12.98;;
47589;SDS011;33316;52.298;9.056;2022-11-14T08:59:20;27.50;;;13.98;;
47589;SDS011;33316;52.298;9.056;2022-11-14T09:01:47;21.70;;;12.90;;
47589;SDS011;33316;52.298;9.056;2022-11-14T09:04:14;22.20;;;12.85;;
47589;SDS011;33316;52.298;9.056;2022-11-14T09:06:41;23.33;;;14.80;;
47589;SDS011;33316;52.298;9.056;2022-11-14T09:09:07;26.00;;;13.88;;
47589;SDS011;33316;52.298;9.056;2022-11-14T09:11:34;27.00;;;14.27;;
47589;SDS011;33316;52.298;9.056;2022-11-14T09:14:02;23.02;;;12.98;;
47589;SDS011;33316;52.298;9.056;2022-11-14T09:16:29;21.90;;;13.25;;
47589;SDS011;33316;52.298;9.056;2022-11-14T09:18:57;25.92;;;14.68;;
47589;SDS011;33316;52.298;9.056;2022-11-14T09:21:24;22.98;;;13.77;;
47589;SDS011;33316;52.298;9.056;2022-11-14T09:23:51;25.48;;;13.48;;
47589;SDS011;33316;52.298;9.056;2022-11-14T09:26:18;23.02;;;13.25;;
47589;SDS011;33316;52.298;9.056;2022-11-14T09:28:45;25.27;;;14.13;;
47589;SDS011;33316;52.298;9.056;2022-11-14T09:31:13;27.08;;;14.82;;
47589;SDS011;33316;52.298;9.056;2022-11-14T09:33:40;21.55;;;13.93;;
47589;SDS011;33316;52.298;9.056;2022-11-14T09:36:07;24.77;;;14.50;;
47589;SDS011;33316;52.298;9.056;2022-11-14T09:38:36;25.15;;;14.80;;
47589;SDS011;33316;52.298;9.056;2022-11-14T09:41:04;22.83;;;13.35;;
47589;SDS011;33316;52.298;9.056;2022-11-14T09:43:55;21.27;;;12.68;;
47589;SDS011;33316;52.298;9.056;2022-11-14T09:46:46;19.38;;;12.32;;
47589;SDS011;33316;52.298;9.056;2022-11-14T09:49:19;19.33;;;12.15;;
47589;SDS011;33316;52.298;9.056;2022-11-14T09:51:59;21.98;;;12.38;;
47589;SDS011;33316;52.298;9.056;2022-11-14T09:54:35;17.95;;;11.60;;
47589;SDS011;33316;52.298;9.056;2022-11-14T09:57:12;19.92;;;12.18;;
47589;SDS011;33316;52.298;9.056;2022-11-14T09:59:41;19.02;;;12.07;;
47589;SDS011;33316;52.298;9.056;2022-11-14T10:02:15;20.30;;;12.05;;
47589;SDS011;33316;52.298;9.056;2022-11-14T10:04:55;20.77;;;12.13;;
47589;SDS011;33316;52.298;9.056;2022-11-14T10:07:36;17.92;;;11.60;;
47589;SDS011;33316;52.298;9.056;2022-11-14T10:10:24;20.83;;;12.93;;
47589;SDS011;33316;52.298;9.056;2022-11-14T10:13:02;16.77;;;11.07;;
47589;SDS011;33316;52.298;9.056;2022-11-14T10:15:39;21.60;;;11.18;;
47589;SDS011;33316;52.298;9.056;2022-11-14T10:18:17;20.55;;;13.05;;
47589;SDS011;33316;52.298;9.056;2022-11-14T10:21:16;17.23;;;10.25;;
47589;SDS011;33316;52.298;9.056;2022-11-14T10:23:55;17.88;;;11.23;;
47589;SDS011;33316;52.298;9.056;2022-11-14T10:26:31;20.90;;;12.00;;
47589;SDS011;33316;52.298;9.056;2022-11-14T10:29:07;20.60;;;11.40;;
47589;SDS011;33316;52.298;9.056;2022-11-14T10:31:57;16.90;;;11.10;;
47589;SDS011;33316;52.298;9.056;2022-11-14T10:34:35;15.60;;;10.13;;
47589;SDS011;33316;52.298;9.056;2022-11-14T10:37:10;15.35;;;9.43;;
47589;SDS011;33316;52.298;9.056;2022-11-14T10:39:43;18.52;;;10.95;;
47589;SDS011;33316;52.298;9.056;2022-11-14T10:42:16;21.25;;;12.88;;
47589;SDS011;33316;52.298;9.056;2022-11-14T10:44:50;16.13;;;10.75;;
47589;SDS011;33316;52.298;9.056;2022-11-14T10:47:23;18.25;;;11.20;;
47589;SDS011;33316;52.298;9.056;2022-11-14T10:49:53;16.77;;;11.05;;
47589;SDS011;33316;52.298;9.056;2022-11-14T10:52:25;18.50;;;10.75;;
47589;SDS011;33316;52.298;9.056;2022-11-14T10:55:05;16.83;;;10.70;;
47589;SDS011;33316;52.298;9.056;2022-11-14T10:57:38;15.18;;;9.65;;
47589;SDS011;33316;52.298;9.056;2022-11-14T11:00:09;15.75;;;10.10;;
47589;SDS011;33316;52.298;9.056;2022-11-14T11:02:47;17.67;;;11.15;;
47589;SDS011;33316;52.298;9.056;2022-11-14T11:05:17;18.73;;;11.00;;
47589;SDS011;33316;52.298;9.056;2022-11-14T11:07:46;15.98;;;10.40;;
47589;SDS011;33316;52.298;9.056;2022-11-14T11:10:31;20.00;;;12.32;;
47589;SDS011;33316;52.298;9.056;2022-11-14T11:13:26;19.60;;;12.10;;
47589;SDS011;33316;52.298;9.056;2022-11-14T11:15:57;18.15;;;11.32;;
47589;SDS011;33316;52.298;9.056;2022-11-14T11:18:27;19.50;;;12.15;;
47589;SDS011;33316;52.298;9.056;2022-11-14T11:21:01;18.23;;;11.68;;
47589;SDS011;33316;52.298;9.056;2022-11-14T11:23:30;17.77;;;11.77;;
47589;SDS011;33316;52.298;9.056;2022-11-14T11:25:58;18.63;;;11.68;;
47589;SDS011;33316;52.298;9.056;2022-11-14T11:28:29;18.88;;;12.23;;
47589;SDS011;33316;52.298;9.056;2022-11-14T11:30:57;22.40;;;13.80;;
47589;SDS011;33316;52.298;9.056;2022-11-14T11:33:26;21.48;;;13.48;;
47589;SDS011;33316;52.298;9.056;2022-11-14T11:35:55;20.02;;;12.70;;
47589;SDS011;33316;52.298;9.056;2022-11-14T11:38:25;22.60;;;13.13;;
47589;SDS011;33316;52.298;9.056;2022-11-14T11:40:58;18.70;;;12.55;;
47589;SDS011;33316;52.298;9.056;2022-11-14T11:43:33;19.88;;;13.05;;
47589;SDS011;33316;52.298;9.056;2022-11-14T11:46:06;20.83;;;13.02;;
47589;SDS011;33316;52.298;9.056;2022-11-14T11:48:38;15.25;;;10.65;;
47589;SDS011;33316;52.298;9.056;2022-11-14T11:51:06;20.70;;;12.80;;
47589;SDS011;33316;52.298;9.056;2022-11-14T11:53:41;19.83;;;11.95;;
47589;SDS011;33316;52.298;9.056;2022-11-14T11:56:12;18.50;;;10.98;;
47589;SDS011;33316;52.298;9.056;2022-11-14T11:58:43;18.63;;;11.35;;
47589;SDS011;33316;52.298;9.056;2022-11-14T12:01:13;15.02;;;10.07;;
47589;SDS011;33316;52.298;9.056;2022-11-14T12:03:41;14.90;;;9.63;;
47589;SDS011;33316;52.298;9.056;2022-11-14T12:06:13;15.30;;;10.45;;
47589;SDS011;33316;52.298;9.056;2022-11-14T12:08:46;17.95;;;8.82;;
47589;SDS011;33316;52.298;9.056;2022-11-14T12:11:27;14.07;;;8.85;;
47589;SDS011;33316;52.298;9.056;2022-11-14T12:17:05;11.65;;;8.07;;
47589;SDS011;33316;52.298;9.056;2022-11-14T12:20:11;11.38;;;7.85;;
47589;SDS011;33316;52.298;9.056;2022-11-14T12:23:08;10.73;;;7.50;;
47589;SDS011;33316;52.298;9.056;2022-11-14T12:26:02;11.02;;;7.65;;
47589;SDS011;33316;52.298;9.056;2022-11-14T12:28:54;12.85;;;7.70;;
47589;SDS011;33316;52.298;9.056;2022-11-14T12:31:34;13.27;;;7.93;;
47589;SDS011;33316;52.298;9.056;2022-11-14T12:34:03;13.95;;;8.95;;
47589;SDS011;33316;52.298;9.056;2022-11-14T12:36:33;11.88;;;8.52;;
47589;SDS011;33316;52.298;9.056;2022-11-14T12:39:00;12.23;;;8.23;;
47589;SDS011;33316;52.298;9.056;2022-11-14T12:41:30;12.27;;;7.95;;
47589;SDS011;33316;52.298;9.056;2022-11-14T12:44:15;11.90;;;7.70;;
47589;SDS011;33316;52.298;9.056;2022-11-14T12:52:40;10.68;;;7.38;;
47589;SDS011;33316;52.298;9.056;2022-11-14T12:58:10;10.35;;;7.38;;
47589;SDS011;33316;52.298;9.056;2022-11-14T13:00:56;12.68;;;8.35;;
47589;SDS011;33316;52.298;9.056;2022-11-14T13:03:36;10.82;;;6.97;;
47589;SDS011;33316;52.298;9.056;2022-11-14T13:11:53;9.02;;;6.38;;
47589;SDS011;33316;52.298;9.056;2022-11-14T13:14:48;9.40;;;7.03;;
47589;SDS011;33316;52.298;9.056;2022-11-14T13:17:34;9.38;;;6.78;;
47589;SDS011;33316;52.298;9.056;2022-11-14T13:20:22;11.57;;;7.68;;
47589;SDS011;33316;52.298;9.056;2022-11-14T13:26:34;9.27;;;6.30;;
47589;SDS011;33316;52.298;9.056;2022-11-14T13:29:02;10.60;;;6.85;;
47589;SDS011;33316;52.298;9.056;2022-11-14T13:31:44;10.60;;;7.35;;
47589;SDS011;33316;52.298;9.056;2022-11-14T13:34:31;10.45;;;6.57;;
47589;SDS011;33316;52.298;9.056;2022-11-14T13:37:07;9.63;;;6.78;;
47589;SDS011;33316;52.298;9.056;2022-11-14T13:39:44;12.05;;;7.25;;
47589;SDS011;33316;52.298;9.056;2022-11-14T13:42:24;13.90;;;9.13;;
47589;SDS011;33316;52.298;9.056;2022-11-14T13:45:04;13.80;;;9.32;;
47589;SDS011;33316;52.298;9.056;2022-11-14T13:48:10;14.35;;;9.30;;
47589;SDS011;33316;52.298;9.056;2022-11-14T13:50:48;15.75;;;10.07;;
47589;SDS011;33316;52.298;9.056;2022-11-14T13:53:18;13.57;;;9.93;;
47589;SDS011;33316;52.298;9.056;2022-11-14T13:55:52;16.00;;;10.23;;
47589;SDS011;33316;52.298;9.056;2022-11-14T13:58:28;14.80;;;9.45;;
47589;SDS011;33316;52.298;9.056;2022-11-14T14:01:10;14.60;;;9.50;;
47589;SDS011;33316;52.298;9.056;2022-11-14T14:03:53;15.90;;;10.27;;
47589;SDS011;33316;52.298;9.056;2022-11-14T14:06:36;16.05;;;9.75;;
47589;SDS011;33316;52.298;9.056;2022-11-14T14:09:13;15.77;;;10.35;;
47589;SDS011;33316;52.298;9.056;2022-11-14T14:11:48;16.55;;;10.23;;
47589;SDS011;33316;52.298;9.056;2022-11-14T14:14:27;13.15;;;9.13;;
47589;SDS011;33316;52.298;9.056;2022-11-14T14:17:08;14.50;;;10.05;;
47589;SDS011;33316;52.298;9.056;2022-11-14T14:19:44;14.63;;;9.30;;
47589;SDS011;33316;52.298;9.056;2022-11-14T14:22:22;15.10;;;9.38;;
47589;SDS011;33316;52.298;9.056;2022-11-14T14:24:57;15.15;;;10.68;;
47589;SDS011;33316;52.298;9.056;2022-11-14T14:27:33;14.57;;;9.20;;
47589;SDS011;33316;52.298;9.056;2022-11-14T14:30:06;13.57;;;8.68;;
47589;SDS011;33316;52.298;9.056;2022-11-14T14:32:35;15.10;;;8.75;;
47589;SDS011;33316;52.298;9.056;2022-11-14T14:35:19;11.20;;;8.02;;
47589;SDS011;33316;52.298;9.056;2022-11-14T14:37:51;9.82;;;7.25;;
47589;SDS011;33316;52.298;9.056;2022-11-14T14:40:23;11.65;;;7.28;;
47589;SDS011;33316;52.298;9.056;2022-11-14T14:42:51;11.55;;;7.35;;
47589;SDS011;33316;52.298;9.056;2022-11-14T14:45:20;12.10;;;7.88;;
47589;SDS011;33316;52.298;9.056;2022-11-14T14:47:48;12.88;;;8.48;;
47589;SDS011;33316;52.298;9.056;2022-11-14T14:50:18;11.75;;;8.30;;
47589;SDS011;33316;52.298;9.056;2022-11-14T14:52:53;12.30;;;8.07;;
47589;SDS011;33316;52.298;9.056;2022-11-14T14:55:23;10.63;;;7.13;;
47589;SDS011;33316;52.298;9.056;2022-11-14T14:57:51;10.02;;;6.72;;
47589;SDS011;33316;52.298;9.056;2022-11-14T15:00:19;11.48;;;7.93;;
47589;SDS011;33316;52.298;9.056;2022-11-14T15:02:50;11.88;;;8.32;;
47589;SDS011;33316;52.298;9.056;2022-11-14T15:05:23;13.38;;;9.43;;